createdAt,value
2022-09-30T00:00:03.386Z,18.74
2022-09-30T00:00:15.382Z,18.75
2022-09-30T00:00:27.385Z,18.73
2022-09-30T00:00:38.384Z,18.74
2022-09-30T00:00:50.378Z,18.73
2022-09-30T00:01:02.386Z,18.73
2022-09-30T00:01:14.390Z,18.73
2022-09-30T00:01:26.426Z,18.73
2022-09-30T00:01:38.452Z,18.74
2022-09-30T00:01:49.497Z,18.73
2022-09-30T00:02:01.470Z,18.73
2022-09-30T00:02:12.442Z,18.72
2022-09-30T00:02:24.363Z,18.74
2022-09-30T00:02:36.406Z,18.74
2022-09-30T00:02:47.416Z,18.73
2022-09-30T00:02:58.459Z,18.74
2022-09-30T00:03:10.426Z,18.74
2022-09-30T00:03:21.448Z,18.75
2022-09-30T00:03:32.400Z,18.74
2022-09-30T00:03:44.428Z,18.74
2022-09-30T00:03:56.331Z,18.74
2022-09-30T00:04:08.332Z,18.74
2022-09-30T00:04:20.334Z,18.75
2022-09-30T00:04:32.336Z,18.74
2022-09-30T00:04:44.337Z,18.74
2022-09-30T00:04:55.342Z,18.73
2022-09-30T00:05:06.348Z,18.72
2022-09-30T00:05:18.353Z,18.73
2022-09-30T00:05:29.352Z,18.72
2022-09-30T00:05:41.351Z,18.73
2022-09-30T00:05:53.355Z,18.73
2022-09-30T00:06:08.435Z,18.73
2022-09-30T00:06:16.353Z,18.74
2022-09-30T00:06:27.366Z,18.74
2022-09-30T00:06:38.356Z,18.74
2022-09-30T00:06:50.361Z,18.73
2022-09-30T00:07:01.355Z,18.73
2022-09-30T00:07:13.345Z,18.73
2022-09-30T00:07:24.353Z,18.72
2022-09-30T00:07:36.347Z,18.73
2022-09-30T00:07:47.351Z,18.72
2022-09-30T00:07:59.355Z,18.72
2022-09-30T00:08:10.355Z,18.71
2022-09-30T00:08:22.349Z,18.72
2022-09-30T00:08:34.343Z,18.72
2022-09-30T00:08:46.363Z,18.72
2022-09-30T00:08:57.403Z,18.74
2022-09-30T00:09:08.435Z,18.72
2022-09-30T00:09:20.491Z,18.72
2022-09-30T00:09:31.355Z,18.72
2022-09-30T00:09:43.377Z,18.71
2022-09-30T00:09:55.337Z,18.70
2022-09-30T00:10:07.328Z,18.72
2022-09-30T00:10:19.325Z,18.72
2022-09-30T00:10:30.324Z,18.73
2022-09-30T00:10:42.324Z,18.73
2022-09-30T00:10:53.409Z,18.71
2022-09-30T00:11:05.403Z,18.72
2022-09-30T00:11:17.395Z,18.72
2022-09-30T00:11:29.389Z,18.72
2022-09-30T00:11:41.381Z,18.70
2022-09-30T00:11:53.385Z,18.72
2022-09-30T00:12:04.388Z,18.71
2022-09-30T00:12:15.391Z,18.71
2022-09-30T00:12:26.398Z,18.72
2022-09-30T00:12:38.386Z,18.71
2022-09-30T00:12:50.390Z,18.71
2022-09-30T00:13:02.389Z,18.71
2022-09-30T00:13:13.389Z,18.70
2022-09-30T00:13:24.398Z,18.70
2022-09-30T00:13:35.408Z,18.71
2022-09-30T00:13:46.313Z,18.71
2022-09-30T00:13:57.324Z,18.71
2022-09-30T00:14:08.336Z,18.71
2022-09-30T00:14:19.409Z,18.71
2022-09-30T00:14:30.312Z,18.70
2022-09-30T00:14:41.410Z,18.71
2022-09-30T00:14:53.315Z,18.72
2022-09-30T00:15:04.419Z,18.71
2022-09-30T00:15:16.312Z,18.72
2022-09-30T00:15:27.312Z,18.72
2022-09-30T00:15:38.402Z,18.70
2022-09-30T00:15:49.462Z,18.71
2022-09-30T00:16:00.471Z,18.71
2022-09-30T00:16:11.416Z,18.71
2022-09-30T00:16:22.478Z,18.71
2022-09-30T00:16:34.461Z,18.71
2022-09-30T00:16:46.324Z,18.70
2022-09-30T00:16:58.323Z,18.70
2022-09-30T00:17:10.327Z,18.72
2022-09-30T00:17:21.324Z,18.72
2022-09-30T00:17:33.322Z,18.71
2022-09-30T00:17:44.327Z,18.71
2022-09-30T00:17:55.412Z,18.72
2022-09-30T00:18:07.319Z,18.72
2022-09-30T00:18:18.408Z,18.71
2022-09-30T00:18:30.406Z,18.72
2022-09-30T00:18:42.400Z,18.72
2022-09-30T00:18:54.411Z,18.72
2022-09-30T00:19:05.407Z,18.72
2022-09-30T00:19:17.404Z,18.70
2022-09-30T00:19:29.399Z,18.71
2022-09-30T00:19:40.407Z,18.72
2022-09-30T00:19:52.392Z,18.70
2022-09-30T00:20:04.407Z,18.71
2022-09-30T00:20:15.408Z,18.70
2022-09-30T00:20:26.323Z,18.70
2022-09-30T00:20:37.413Z,18.71
2022-09-30T00:20:49.321Z,18.72
2022-09-30T00:21:01.318Z,18.72
2022-09-30T00:21:12.311Z,18.73
2022-09-30T00:21:23.413Z,18.73
2022-09-30T00:21:34.315Z,18.71
2022-09-30T00:21:45.405Z,18.70
2022-09-30T00:21:57.400Z,18.70
2022-09-30T00:22:09.391Z,18.70
2022-09-30T00:22:21.383Z,18.69
2022-09-30T00:22:32.391Z,18.71
2022-09-30T00:22:43.386Z,18.71
2022-09-30T00:22:55.379Z,18.70
2022-09-30T00:23:07.371Z,18.70
2022-09-30T00:23:19.368Z,18.69
2022-09-30T00:23:30.370Z,18.71
2022-09-30T00:23:42.370Z,18.71
2022-09-30T00:23:53.392Z,18.72
2022-09-30T00:24:05.382Z,18.71
2022-09-30T00:24:16.375Z,18.71
2022-09-30T00:24:28.377Z,18.70
2022-09-30T00:24:39.381Z,18.71
2022-09-30T00:24:51.388Z,18.70
2022-09-30T00:25:03.387Z,18.71
2022-09-30T00:25:15.374Z,18.72
2022-09-30T00:25:26.374Z,18.71
2022-09-30T00:25:38.378Z,18.70
2022-09-30T00:25:50.384Z,18.72
2022-09-30T00:26:02.377Z,18.70
2022-09-30T00:26:13.376Z,18.71
2022-09-30T00:26:25.372Z,18.70
2022-09-30T00:26:36.377Z,18.69
2022-09-30T00:26:48.368Z,18.70
2022-09-30T00:27:00.366Z,18.71
2022-09-30T00:27:12.368Z,18.71
2022-09-30T00:27:24.374Z,18.71
2022-09-30T00:27:36.369Z,18.69
2022-09-30T00:27:47.367Z,18.70
2022-09-30T00:27:59.367Z,18.70
2022-09-30T00:28:11.362Z,18.72
2022-09-30T00:28:23.358Z,18.69
2022-09-30T00:28:34.363Z,18.71
2022-09-30T00:28:46.354Z,18.70
2022-09-30T00:28:57.374Z,18.70
2022-09-30T00:29:08.363Z,18.69
2022-09-30T00:29:19.433Z,18.69
2022-09-30T00:29:30.368Z,18.70
2022-09-30T00:29:42.370Z,18.70
2022-09-30T00:29:54.361Z,18.69
2022-09-30T00:30:06.360Z,18.70
2022-09-30T00:30:18.362Z,18.68
2022-09-30T00:30:29.361Z,18.69
2022-09-30T00:30:41.512Z,18.69
2022-09-30T00:30:53.367Z,18.71
2022-09-30T00:31:05.520Z,18.69
2022-09-30T00:31:16.342Z,18.69
2022-09-30T00:31:27.503Z,18.70
2022-09-30T00:31:39.566Z,18.69
2022-09-30T00:31:51.438Z,18.69
2022-09-30T00:32:03.397Z,18.68
2022-09-30T00:32:14.395Z,18.68
2022-09-30T00:32:25.392Z,18.68
2022-09-30T00:32:37.379Z,18.68
2022-09-30T00:32:49.378Z,18.70
2022-09-30T00:33:01.370Z,18.68
2022-09-30T00:33:13.368Z,18.70
2022-09-30T00:33:24.375Z,18.69
2022-09-30T00:33:36.372Z,18.69
2022-09-30T00:33:48.359Z,18.70
2022-09-30T00:34:00.364Z,18.71
2022-09-30T00:34:11.691Z,18.70
2022-09-30T00:34:22.398Z,18.69
2022-09-30T00:34:34.404Z,18.71
2022-09-30T00:34:46.406Z,18.70
2022-09-30T00:34:57.408Z,18.70
2022-09-30T00:35:09.409Z,18.71
2022-09-30T00:35:22.626Z,18.70
2022-09-30T00:35:33.400Z,18.69
2022-09-30T00:35:45.388Z,18.70
2022-09-30T00:35:56.395Z,18.70
2022-09-30T00:36:08.402Z,18.70
2022-09-30T00:36:19.402Z,18.70
2022-09-30T00:36:31.409Z,18.69
2022-09-30T00:36:43.408Z,18.68
2022-09-30T00:36:55.404Z,18.70
2022-09-30T00:37:06.409Z,18.69
2022-09-30T00:37:18.406Z,18.70
2022-09-30T00:37:29.404Z,18.69
2022-09-30T00:37:41.395Z,18.69
2022-09-30T00:37:52.396Z,18.70
2022-09-30T00:38:04.399Z,18.70
2022-09-30T00:38:16.396Z,18.71
2022-09-30T00:38:28.395Z,18.71
2022-09-30T00:38:39.400Z,18.70
2022-09-30T00:38:51.393Z,18.70
2022-09-30T00:39:03.394Z,18.69
2022-09-30T00:39:15.380Z,18.71
2022-09-30T00:39:27.370Z,18.70
2022-09-30T00:39:39.373Z,18.70
2022-09-30T00:39:50.374Z,18.70
2022-09-30T00:40:02.375Z,18.70
2022-09-30T00:40:14.367Z,18.69
2022-09-30T00:40:26.361Z,18.69
2022-09-30T00:40:38.364Z,18.68
2022-09-30T00:40:50.367Z,18.68
2022-09-30T00:41:01.368Z,18.70
2022-09-30T00:41:13.372Z,18.71
2022-09-30T00:41:24.369Z,18.71
2022-09-30T00:41:36.355Z,18.70
2022-09-30T00:41:48.354Z,18.70
2022-09-30T00:42:00.350Z,18.70
2022-09-30T00:42:12.332Z,18.69
2022-09-30T00:42:24.329Z,18.70
2022-09-30T00:42:35.410Z,18.70
2022-09-30T00:42:47.316Z,18.70
2022-09-30T00:42:58.410Z,18.70
2022-09-30T00:43:10.407Z,18.69
2022-09-30T00:43:22.407Z,18.69
2022-09-30T00:43:34.409Z,18.70
2022-09-30T00:43:46.315Z,18.68
2022-09-30T00:43:58.322Z,18.69
2022-09-30T00:44:09.334Z,18.68
2022-09-30T00:44:21.346Z,18.68
2022-09-30T00:44:33.320Z,18.69
2022-09-30T00:44:44.469Z,18.70
2022-09-30T00:44:56.405Z,18.70
2022-09-30T00:45:08.401Z,18.69
2022-09-30T00:45:20.403Z,18.70
2022-09-30T00:45:32.397Z,18.69
2022-09-30T00:45:44.385Z,18.70
2022-09-30T00:45:55.389Z,18.68
2022-09-30T00:46:07.390Z,18.67
2022-09-30T00:46:19.451Z,18.69
2022-09-30T00:46:30.492Z,18.69
2022-09-30T00:46:44.858Z,18.70
2022-09-30T00:46:54.370Z,18.68
2022-09-30T00:47:06.415Z,18.69
2022-09-30T00:47:17.366Z,18.68
2022-09-30T00:47:29.361Z,18.67
2022-09-30T00:47:41.353Z,18.68
2022-09-30T00:47:53.354Z,18.67
2022-09-30T00:48:05.353Z,18.68
2022-09-30T00:48:17.357Z,18.67
2022-09-30T00:48:29.353Z,18.68
2022-09-30T00:48:41.345Z,18.68
2022-09-30T00:48:53.347Z,18.68
2022-09-30T00:49:04.372Z,18.68
2022-09-30T00:49:15.363Z,18.68
2022-09-30T00:49:27.366Z,18.68
2022-09-30T00:49:39.382Z,18.68
2022-09-30T00:49:51.370Z,18.68
2022-09-30T00:50:02.375Z,18.68
2022-09-30T00:50:13.377Z,18.67
2022-09-30T00:50:25.373Z,18.68
2022-09-30T00:50:36.380Z,18.69
2022-09-30T00:50:48.373Z,18.67
2022-09-30T00:51:00.371Z,18.67
2022-09-30T00:51:11.377Z,18.67
2022-09-30T00:51:23.379Z,18.69
2022-09-30T00:51:34.387Z,18.68
2022-09-30T00:51:46.383Z,18.69
2022-09-30T00:51:57.387Z,18.67
2022-09-30T00:52:09.381Z,18.68
2022-09-30T00:52:20.387Z,18.68
2022-09-30T00:52:32.389Z,18.67
2022-09-30T00:52:43.393Z,18.67
2022-09-30T00:52:55.386Z,18.67
2022-09-30T00:53:07.376Z,18.67
2022-09-30T00:53:19.378Z,18.67
2022-09-30T00:53:31.378Z,18.67
2022-09-30T00:53:42.382Z,18.67
2022-09-30T00:53:53.385Z,18.68
2022-09-30T00:54:04.405Z,18.68
2022-09-30T00:54:15.409Z,18.67
2022-09-30T00:54:27.405Z,18.65
2022-09-30T00:54:39.404Z,18.64
2022-09-30T00:54:50.406Z,18.66
2022-09-30T00:55:02.413Z,18.67
2022-09-30T00:55:14.405Z,18.66
2022-09-30T00:55:26.395Z,18.67
2022-09-30T00:55:38.382Z,18.67
2022-09-30T00:55:50.384Z,18.67
2022-09-30T00:56:01.386Z,18.67
2022-09-30T00:56:13.385Z,18.68
2022-09-30T00:56:25.385Z,18.67
2022-09-30T00:56:37.390Z,18.67
2022-09-30T00:56:48.390Z,18.67
2022-09-30T00:57:00.392Z,18.68
2022-09-30T00:57:12.395Z,18.68
2022-09-30T00:57:24.401Z,18.68
2022-09-30T00:57:36.411Z,18.68
2022-09-30T00:57:48.398Z,18.68
2022-09-30T00:58:00.394Z,18.68
2022-09-30T00:58:12.394Z,18.67
2022-09-30T00:58:23.391Z,18.67
2022-09-30T00:58:35.385Z,18.67
2022-09-30T00:58:46.398Z,18.67
2022-09-30T00:58:58.381Z,18.65
2022-09-30T00:59:10.395Z,18.66
2022-09-30T00:59:21.481Z,18.66
2022-09-30T00:59:33.379Z,18.66
2022-09-30T00:59:45.352Z,18.66
2022-09-30T00:59:56.350Z,18.67
2022-09-30T01:00:08.353Z,18.65
2022-09-30T01:00:20.472Z,18.67
2022-09-30T01:00:32.427Z,18.66
2022-09-30T01:00:44.372Z,18.67
2022-09-30T01:00:56.513Z,18.66
2022-09-30T01:01:07.424Z,18.67
2022-09-30T01:01:19.409Z,18.65
2022-09-30T01:01:30.399Z,18.66
2022-09-30T01:01:42.454Z,18.67
2022-09-30T01:01:54.410Z,18.65
2022-09-30T01:02:05.420Z,18.66
2022-09-30T01:02:16.448Z,18.66
2022-09-30T01:02:27.455Z,18.66
2022-09-30T01:02:39.323Z,18.67
2022-09-30T01:02:50.411Z,18.66
2022-09-30T01:03:02.405Z,18.65
2022-09-30T01:03:14.395Z,18.66
2022-09-30T01:03:26.407Z,18.66
2022-09-30T01:03:38.380Z,18.66
2022-09-30T01:03:50.368Z,18.67
2022-09-30T01:04:02.383Z,18.67
2022-09-30T01:04:13.380Z,18.67
2022-09-30T01:04:25.370Z,18.67
2022-09-30T01:04:36.400Z,18.67
2022-09-30T01:04:47.392Z,18.68
2022-09-30T01:04:59.393Z,18.67
2022-09-30T01:05:11.391Z,18.66
2022-09-30T01:05:23.388Z,18.67
2022-09-30T01:05:35.385Z,18.66
2022-09-30T01:05:47.375Z,18.67
2022-09-30T01:05:59.372Z,18.67
2022-09-30T01:06:11.365Z,18.66
2022-09-30T01:06:23.370Z,18.66
2022-09-30T01:06:35.364Z,18.67
2022-09-30T01:06:47.366Z,18.67
2022-09-30T01:06:59.360Z,18.67
2022-09-30T01:07:10.358Z,18.67
2022-09-30T01:07:22.357Z,18.68
2022-09-30T01:07:34.367Z,18.68
2022-09-30T01:07:46.361Z,18.68
2022-09-30T01:07:58.352Z,18.68
2022-09-30T01:08:10.341Z,18.68
2022-09-30T01:08:21.353Z,18.67
2022-09-30T01:08:32.354Z,18.68
2022-09-30T01:08:44.345Z,18.67
2022-09-30T01:08:56.336Z,18.66
2022-09-30T01:09:08.391Z,18.68
2022-09-30T01:09:19.482Z,18.66
2022-09-30T01:09:30.458Z,18.67
2022-09-30T01:09:42.378Z,18.67
2022-09-30T01:09:54.327Z,18.67
2022-09-30T01:10:05.312Z,18.67
2022-09-30T01:10:16.407Z,18.67
2022-09-30T01:10:28.414Z,18.68
2022-09-30T01:10:40.312Z,18.67
2022-09-30T01:10:51.313Z,18.66
2022-09-30T01:11:07.281Z,18.67
2022-09-30T01:11:14.387Z,18.65
2022-09-30T01:11:25.374Z,18.66
2022-09-30T01:11:37.379Z,18.66
2022-09-30T01:11:49.379Z,18.67
2022-09-30T01:12:01.376Z,18.66
2022-09-30T01:12:13.371Z,18.65
2022-09-30T01:12:25.368Z,18.65
2022-09-30T01:12:37.369Z,18.65
2022-09-30T01:12:48.404Z,18.65
2022-09-30T01:13:00.376Z,18.66
2022-09-30T01:13:11.373Z,18.66
2022-09-30T01:13:23.364Z,18.65
2022-09-30T01:13:35.364Z,18.64
2022-09-30T01:13:47.349Z,18.65
2022-09-30T01:13:59.354Z,18.64
2022-09-30T01:14:10.350Z,18.65
2022-09-30T01:14:22.344Z,18.64
2022-09-30T01:14:34.339Z,18.63
2022-09-30T01:14:45.369Z,18.64
2022-09-30T01:14:57.353Z,18.64
2022-09-30T01:15:08.351Z,18.65
2022-09-30T01:15:20.355Z,18.65
2022-09-30T01:15:32.353Z,18.65
2022-09-30T01:15:44.353Z,18.66
2022-09-30T01:15:55.402Z,18.66
2022-09-30T01:16:06.441Z,18.65
2022-09-30T01:16:17.442Z,18.65
2022-09-30T01:16:29.431Z,18.65
2022-09-30T01:16:40.441Z,18.65
2022-09-30T01:16:51.404Z,18.66
2022-09-30T01:17:02.404Z,18.66
2022-09-30T01:17:14.394Z,18.64
2022-09-30T01:17:26.392Z,18.64
2022-09-30T01:17:38.393Z,18.63
2022-09-30T01:17:50.392Z,18.65
2022-09-30T01:18:02.382Z,18.64
2022-09-30T01:18:14.377Z,18.64
2022-09-30T01:18:26.366Z,18.66
2022-09-30T01:18:38.360Z,18.64
2022-09-30T01:18:50.349Z,18.65
2022-09-30T01:19:02.363Z,18.64
2022-09-30T01:19:13.410Z,18.66
2022-09-30T01:19:24.377Z,18.65
2022-09-30T01:19:36.368Z,18.64
2022-09-30T01:19:47.380Z,18.64
2022-09-30T01:19:59.380Z,18.64
2022-09-30T01:20:11.378Z,18.63
2022-09-30T01:20:23.377Z,18.65
2022-09-30T01:20:35.375Z,18.64
2022-09-30T01:20:47.368Z,18.64
2022-09-30T01:20:58.371Z,18.64
2022-09-30T01:21:10.371Z,18.64
2022-09-30T01:21:21.369Z,18.63
2022-09-30T01:21:33.362Z,18.64
2022-09-30T01:21:45.371Z,18.64
2022-09-30T01:21:56.375Z,18.65
2022-09-30T01:22:07.377Z,18.64
2022-09-30T01:22:19.373Z,18.65
2022-09-30T01:22:30.381Z,18.64
2022-09-30T01:22:42.349Z,18.66
2022-09-30T01:22:53.327Z,18.66
2022-09-30T01:23:05.329Z,18.64
2022-09-30T01:23:17.329Z,18.64
2022-09-30T01:23:29.333Z,18.65
2022-09-30T01:23:41.334Z,18.65
2022-09-30T01:23:52.334Z,18.65
2022-09-30T01:24:04.350Z,18.66
2022-09-30T01:24:15.356Z,18.65
2022-09-30T01:24:26.357Z,18.65
2022-09-30T01:24:38.350Z,18.65
2022-09-30T01:24:49.357Z,18.65
2022-09-30T01:25:01.352Z,18.65
2022-09-30T01:25:12.358Z,18.64
2022-09-30T01:25:24.346Z,18.64
2022-09-30T01:25:36.351Z,18.66
2022-09-30T01:25:47.368Z,18.64
2022-09-30T01:25:59.373Z,18.63
2022-09-30T01:26:11.360Z,18.64
2022-09-30T01:26:23.358Z,18.64
2022-09-30T01:26:35.349Z,18.64
2022-09-30T01:26:47.348Z,18.64
2022-09-30T01:26:59.349Z,18.64
2022-09-30T01:27:10.346Z,18.64
2022-09-30T01:27:21.348Z,18.64
2022-09-30T01:27:32.355Z,18.64
2022-09-30T01:27:44.350Z,18.65
2022-09-30T01:27:56.350Z,18.65
2022-09-30T01:28:07.352Z,18.64
2022-09-30T01:28:19.352Z,18.63
2022-09-30T01:28:31.344Z,18.63
2022-09-30T01:28:43.342Z,18.65
2022-09-30T01:28:54.366Z,18.64
2022-09-30T01:29:05.363Z,18.64
2022-09-30T01:29:16.362Z,18.63
2022-09-30T01:29:28.362Z,18.63
2022-09-30T01:29:40.363Z,18.63
2022-09-30T01:29:52.376Z,18.63
2022-09-30T01:30:03.371Z,18.64
2022-09-30T01:30:15.369Z,18.62
2022-09-30T01:30:27.373Z,18.64
2022-09-30T01:30:39.365Z,18.63
2022-09-30T01:30:51.365Z,18.64
2022-09-30T01:31:02.432Z,18.63
2022-09-30T01:31:13.442Z,18.64
2022-09-30T01:31:25.427Z,18.64
2022-09-30T01:31:36.521Z,18.64
2022-09-30T01:31:48.490Z,18.63
2022-09-30T01:32:00.329Z,18.62
2022-09-30T01:32:12.333Z,18.64
2022-09-30T01:32:23.330Z,18.64
2022-09-30T01:32:35.330Z,18.63
2022-09-30T01:32:47.332Z,18.63
2022-09-30T01:32:58.331Z,18.62
2022-09-30T01:33:10.320Z,18.63
2022-09-30T01:33:21.318Z,18.64
2022-09-30T01:33:32.416Z,18.64
2022-09-30T01:33:44.322Z,18.64
2022-09-30T01:33:55.330Z,18.63
2022-09-30T01:34:06.338Z,18.64
2022-09-30T01:34:18.326Z,18.62
2022-09-30T01:34:30.322Z,18.63
2022-09-30T01:34:41.314Z,18.63
2022-09-30T01:34:52.321Z,18.64
2022-09-30T01:35:03.327Z,18.63
2022-09-30T01:35:14.328Z,18.63
2022-09-30T01:35:25.414Z,18.64
2022-09-30T01:35:37.319Z,18.64
2022-09-30T01:35:48.408Z,18.64
2022-09-30T01:36:00.403Z,18.65
2022-09-30T01:36:11.408Z,18.64
2022-09-30T01:36:22.407Z,18.64
2022-09-30T01:36:34.404Z,18.64
2022-09-30T01:36:46.401Z,18.63
2022-09-30T01:36:58.388Z,18.63
2022-09-30T01:37:09.392Z,18.63
2022-09-30T01:37:21.397Z,18.63
2022-09-30T01:37:33.390Z,18.63
2022-09-30T01:37:44.398Z,18.64
2022-09-30T01:37:56.396Z,18.65
2022-09-30T01:38:08.394Z,18.63
2022-09-30T01:38:19.398Z,18.63
2022-09-30T01:38:31.394Z,18.63
2022-09-30T01:38:43.385Z,18.63
2022-09-30T01:38:55.400Z,18.62
2022-09-30T01:39:06.396Z,18.63
2022-09-30T01:39:17.400Z,18.62
2022-09-30T01:39:29.396Z,18.62
2022-09-30T01:39:41.390Z,18.61
2022-09-30T01:39:52.400Z,18.63
2022-09-30T01:40:04.405Z,18.62
2022-09-30T01:40:16.404Z,18.63
2022-09-30T01:40:27.408Z,18.63
2022-09-30T01:40:39.314Z,18.62
2022-09-30T01:40:50.409Z,18.63
2022-09-30T01:41:02.309Z,18.63
2022-09-30T01:41:13.310Z,18.64
2022-09-30T01:41:24.401Z,18.62
2022-09-30T01:41:35.413Z,18.63
2022-09-30T01:41:47.392Z,18.62
2022-09-30T01:41:59.411Z,18.62
2022-09-30T01:42:10.411Z,18.61
2022-09-30T01:42:22.399Z,18.61
2022-09-30T01:42:34.393Z,18.61
2022-09-30T01:42:46.387Z,18.62
2022-09-30T01:42:58.379Z,18.62
2022-09-30T01:43:09.386Z,18.62
2022-09-30T01:43:21.397Z,18.61
2022-09-30T01:43:32.401Z,18.61
2022-09-30T01:43:44.390Z,18.61
2022-09-30T01:43:55.392Z,18.61
2022-09-30T01:44:06.410Z,18.61
2022-09-30T01:44:17.309Z,18.61
2022-09-30T01:44:28.406Z,18.61
2022-09-30T01:44:39.407Z,18.61
2022-09-30T01:44:51.406Z,18.61
2022-09-30T01:45:02.337Z,18.61
2022-09-30T01:45:13.423Z,18.60
2022-09-30T01:45:25.312Z,18.61
2022-09-30T01:45:37.320Z,18.61
2022-09-30T01:45:48.319Z,18.61
2022-09-30T01:45:59.312Z,18.61
2022-09-30T01:46:10.311Z,18.62
2022-09-30T01:46:21.425Z,18.61
2022-09-30T01:46:32.428Z,18.62
2022-09-30T01:46:43.414Z,18.63
2022-09-30T01:46:54.511Z,18.62
2022-09-30T01:47:06.444Z,18.63
2022-09-30T01:47:17.387Z,18.61
2022-09-30T01:47:28.402Z,18.61
2022-09-30T01:47:39.411Z,18.62
2022-09-30T01:47:51.404Z,18.63
2022-09-30T01:48:03.403Z,18.61
2022-09-30T01:48:15.408Z,18.62
2022-09-30T01:48:26.406Z,18.62
2022-09-30T01:48:38.402Z,18.62
2022-09-30T01:48:49.403Z,18.62
2022-09-30T01:49:01.418Z,18.62
2022-09-30T01:49:12.404Z,18.62
2022-09-30T01:49:24.313Z,18.62
2022-09-30T01:49:35.399Z,18.62
2022-09-30T01:49:46.401Z,18.61
2022-09-30T01:49:58.393Z,18.62
2022-09-30T01:50:10.396Z,18.62
2022-09-30T01:50:21.402Z,18.61
2022-09-30T01:50:33.400Z,18.62
2022-09-30T01:50:45.399Z,18.62
2022-09-30T01:50:57.384Z,18.62
2022-09-30T01:51:09.377Z,18.62
2022-09-30T01:51:21.376Z,18.61
2022-09-30T01:51:33.361Z,18.61
2022-09-30T01:51:44.372Z,18.61
2022-09-30T01:51:56.360Z,18.60
2022-09-30T01:52:08.347Z,18.61
2022-09-30T01:52:20.348Z,18.60
2022-09-30T01:52:32.344Z,18.60
2022-09-30T01:52:44.342Z,18.61
2022-09-30T01:52:55.345Z,18.60
2022-09-30T01:53:07.337Z,18.61
2022-09-30T01:53:19.339Z,18.62
2022-09-30T01:53:31.338Z,18.62
2022-09-30T01:53:43.341Z,18.61
2022-09-30T01:53:55.342Z,18.61
2022-09-30T01:54:07.358Z,18.61
2022-09-30T01:54:18.346Z,18.61
2022-09-30T01:54:30.342Z,18.62
2022-09-30T01:54:41.350Z,18.61
2022-09-30T01:54:53.353Z,18.61
2022-09-30T01:55:05.357Z,18.62
2022-09-30T01:55:17.362Z,18.61
2022-09-30T01:55:29.357Z,18.62
2022-09-30T01:55:41.362Z,18.61
2022-09-30T01:55:52.367Z,18.61
2022-09-30T01:56:04.369Z,18.61
2022-09-30T01:56:16.371Z,18.61
2022-09-30T01:56:28.362Z,18.61
2022-09-30T01:56:39.359Z,18.61
2022-09-30T01:56:51.362Z,18.61
2022-09-30T01:57:03.356Z,18.60
2022-09-30T01:57:15.347Z,18.61
2022-09-30T01:57:27.347Z,18.61
2022-09-30T01:57:39.351Z,18.61
2022-09-30T01:57:51.337Z,18.61
2022-09-30T01:58:03.337Z,18.61
2022-09-30T01:58:15.332Z,18.60
2022-09-30T01:58:27.326Z,18.61
2022-09-30T01:58:39.325Z,18.61
2022-09-30T01:58:51.329Z,18.61
2022-09-30T01:59:02.337Z,18.61
2022-09-30T01:59:13.396Z,18.60
2022-09-30T01:59:24.342Z,18.59
2022-09-30T01:59:36.336Z,18.60
2022-09-30T01:59:48.339Z,18.61
2022-09-30T02:00:00.326Z,18.60
2022-09-30T02:00:11.429Z,18.61
2022-09-30T02:00:23.399Z,18.61
2022-09-30T02:00:35.470Z,18.61
2022-09-30T02:00:47.367Z,18.61
2022-09-30T02:00:58.426Z,18.60
2022-09-30T02:01:10.473Z,18.61
2022-09-30T02:01:21.516Z,18.60
2022-09-30T02:01:33.365Z,18.61
2022-09-30T02:01:45.402Z,18.61
2022-09-30T02:01:57.426Z,18.60
2022-09-30T02:02:08.472Z,18.60
2022-09-30T02:02:19.506Z,18.60
2022-09-30T02:02:30.447Z,18.60
2022-09-30T02:02:41.403Z,18.60
2022-09-30T02:02:52.402Z,18.59
2022-09-30T02:03:04.402Z,18.61
2022-09-30T02:03:16.398Z,18.60
2022-09-30T02:03:28.404Z,18.60
2022-09-30T02:03:40.410Z,18.62
2022-09-30T02:03:52.411Z,18.61
2022-09-30T02:04:04.429Z,18.60
2022-09-30T02:04:16.320Z,18.59
2022-09-30T02:04:27.331Z,18.59
2022-09-30T02:04:38.333Z,18.59
2022-09-30T02:04:49.333Z,18.61
2022-09-30T02:05:01.331Z,18.60
2022-09-30T02:05:12.339Z,18.60
2022-09-30T02:05:24.337Z,18.61
2022-09-30T02:05:36.330Z,18.61
2022-09-30T02:05:48.326Z,18.60
2022-09-30T02:06:00.338Z,18.60
2022-09-30T02:06:11.411Z,18.60
2022-09-30T02:06:23.405Z,18.60
2022-09-30T02:06:35.405Z,18.59
2022-09-30T02:06:47.394Z,18.60
2022-09-30T02:06:59.382Z,18.60
2022-09-30T02:07:11.384Z,18.60
2022-09-30T02:07:23.381Z,18.60
2022-09-30T02:07:35.368Z,18.59
2022-09-30T02:07:47.377Z,18.60
2022-09-30T02:07:58.381Z,18.59
2022-09-30T02:08:10.372Z,18.59
2022-09-30T02:08:22.374Z,18.60
2022-09-30T02:08:34.363Z,18.60
2022-09-30T02:08:46.362Z,18.60
2022-09-30T02:08:58.437Z,18.62
2022-09-30T02:09:09.435Z,18.61
2022-09-30T02:09:21.557Z,18.60
2022-09-30T02:09:33.439Z,18.60
2022-09-30T02:09:44.444Z,18.60
2022-09-30T02:09:56.371Z,18.59
2022-09-30T02:10:08.351Z,18.59
2022-09-30T02:10:20.348Z,18.59
2022-09-30T02:10:31.348Z,18.59
2022-09-30T02:10:42.347Z,18.60
2022-09-30T02:10:54.344Z,18.60
2022-09-30T02:11:05.343Z,18.59
2022-09-30T02:11:17.346Z,18.59
2022-09-30T02:11:29.336Z,18.58
2022-09-30T02:11:41.332Z,18.58
2022-09-30T02:11:52.332Z,18.60
2022-09-30T02:12:04.327Z,18.60
2022-09-30T02:12:15.330Z,18.59
2022-09-30T02:12:26.336Z,18.59
2022-09-30T02:12:38.333Z,18.60
2022-09-30T02:12:50.336Z,18.59
2022-09-30T02:13:01.343Z,18.60
2022-09-30T02:13:13.340Z,18.60
2022-09-30T02:13:25.337Z,18.59
2022-09-30T02:13:36.344Z,18.59
2022-09-30T02:13:47.343Z,18.60
2022-09-30T02:13:59.356Z,18.61
2022-09-30T02:14:10.352Z,18.59
2022-09-30T02:14:22.351Z,18.60
2022-09-30T02:14:34.351Z,18.59
2022-09-30T02:14:46.347Z,18.60
2022-09-30T02:14:58.336Z,18.59
2022-09-30T02:15:09.334Z,18.59
2022-09-30T02:15:20.358Z,18.59
2022-09-30T02:15:32.342Z,18.59
2022-09-30T02:15:44.347Z,18.58
2022-09-30T02:15:56.394Z,18.58
2022-09-30T02:16:07.424Z,18.58
2022-09-30T02:16:18.482Z,18.58
2022-09-30T02:16:30.405Z,18.59
2022-09-30T02:16:41.372Z,18.59
2022-09-30T02:16:53.366Z,18.58
2022-09-30T02:17:05.359Z,18.59
2022-09-30T02:17:17.353Z,18.59
2022-09-30T02:17:28.359Z,18.58
2022-09-30T02:17:39.363Z,18.58
2022-09-30T02:17:51.362Z,18.58
2022-09-30T02:18:02.373Z,18.58
2022-09-30T02:18:13.379Z,18.58
2022-09-30T02:18:24.377Z,18.57
2022-09-30T02:18:35.382Z,18.57
2022-09-30T02:18:47.377Z,18.56
2022-09-30T02:18:59.380Z,18.57
2022-09-30T02:19:10.367Z,18.57
2022-09-30T02:19:22.426Z,18.57
2022-09-30T02:19:33.362Z,18.57
2022-09-30T02:19:44.364Z,18.58
2022-09-30T02:19:56.359Z,18.57
2022-09-30T02:20:08.354Z,18.56
2022-09-30T02:20:19.364Z,18.56
2022-09-30T02:20:31.353Z,18.58
2022-09-30T02:20:43.361Z,18.57
2022-09-30T02:20:55.352Z,18.57
2022-09-30T02:21:07.354Z,18.57
2022-09-30T02:21:19.353Z,18.57
2022-09-30T02:21:31.349Z,18.58
2022-09-30T02:21:42.352Z,18.57
2022-09-30T02:21:54.356Z,18.58
2022-09-30T02:22:05.380Z,18.57
2022-09-30T02:22:16.378Z,18.57
2022-09-30T02:22:28.377Z,18.57
2022-09-30T02:22:40.378Z,18.57
2022-09-30T02:22:52.373Z,18.57
2022-09-30T02:23:03.383Z,18.57
2022-09-30T02:23:15.373Z,18.59
2022-09-30T02:23:26.406Z,18.58
2022-09-30T02:23:38.374Z,18.57
2022-09-30T02:23:50.356Z,18.58
2022-09-30T02:24:02.365Z,18.57
2022-09-30T02:24:13.378Z,18.56
2022-09-30T02:24:24.377Z,18.56
2022-09-30T02:24:36.379Z,18.57
2022-09-30T02:24:48.379Z,18.56
2022-09-30T02:24:59.383Z,18.56
2022-09-30T02:25:10.381Z,18.55
2022-09-30T02:25:22.388Z,18.58
2022-09-30T02:25:33.387Z,18.58
2022-09-30T02:25:45.383Z,18.59
2022-09-30T02:25:57.392Z,18.57
2022-09-30T02:26:08.394Z,18.57
2022-09-30T02:26:20.392Z,18.58
2022-09-30T02:26:32.395Z,18.56
2022-09-30T02:26:43.400Z,18.57
2022-09-30T02:26:54.409Z,18.57
2022-09-30T02:27:06.401Z,18.56
2022-09-30T02:27:18.392Z,18.56
2022-09-30T02:27:30.384Z,18.56
2022-09-30T02:27:42.395Z,18.56
2022-09-30T02:27:54.380Z,18.56
2022-09-30T02:28:06.377Z,18.57
2022-09-30T02:28:17.387Z,18.57
2022-09-30T02:28:29.376Z,18.57
2022-09-30T02:28:41.376Z,18.56
2022-09-30T02:28:53.378Z,18.57
2022-09-30T02:29:05.409Z,18.56
2022-09-30T02:29:16.404Z,18.56
2022-09-30T02:29:28.391Z,18.56
2022-09-30T02:29:40.390Z,18.56